createdAt,value
2022-08-25T00:01:39.088Z,79.15
2022-08-25T00:04:11.024Z,79.23
2022-08-25T00:06:39.996Z,79.09
2022-08-25T00:09:09.225Z,79.01
2022-08-25T00:11:38.316Z,79.16
2022-08-25T00:14:08.543Z,79.53
2022-08-25T00:16:36.507Z,79.33
2022-08-25T00:19:07.318Z,79.44
2022-08-25T00:21:35.212Z,79.02
2022-08-25T00:24:03.485Z,79.29
2022-08-25T00:26:31.579Z,79.32
2022-08-25T00:29:02.075Z,79.21
2022-08-25T00:31:38.375Z,79.31
2022-08-25T00:34:11.887Z,79.28
2022-08-25T00:36:39.824Z,79.32
2022-08-25T00:39:08.621Z,79.16
2022-08-25T00:41:37.404Z,79.38
2022-08-25T00:44:08.035Z,79.35
2022-08-25T00:46:41.083Z,79.42
2022-08-25T00:49:25.056Z,79.96
2022-08-25T00:51:56.373Z,79.88
2022-08-25T00:54:27.496Z,79.84
2022-08-25T00:56:56.713Z,79.47
2022-08-25T00:59:26.529Z,79.95
2022-08-25T01:01:55.599Z,80.34
2022-08-25T01:04:23.916Z,80.13
2022-08-25T01:06:52.121Z,80.15
2022-08-25T01:09:20.293Z,80.27
2022-08-25T01:11:48.472Z,80.77
2022-08-25T01:14:18.077Z,80.71
2022-08-25T01:16:46.552Z,80.57
2022-08-25T01:19:19.277Z,80.53
2022-08-25T01:21:49.147Z,80.49
2022-08-25T01:24:24.189Z,80.69
2022-08-25T01:26:52.225Z,80.79
2022-08-25T01:29:25.594Z,80.57
2022-08-25T01:31:58.951Z,80.41
2022-08-25T01:34:27.866Z,80.37
2022-08-25T01:36:56.529Z,80.42
2022-08-25T01:39:25.684Z,80.59
2022-08-25T01:42:12.439Z,80.56
2022-08-25T01:44:42.039Z,80.41
2022-08-25T01:47:10.976Z,80.41
2022-08-25T01:49:41.692Z,80.70
2022-08-25T01:52:16.295Z,81.12
2022-08-25T01:54:44.389Z,80.90
2022-08-25T01:57:12.541Z,80.68
2022-08-25T01:59:41.283Z,80.56
2022-08-25T02:02:09.310Z,80.49
2022-08-25T02:04:38.737Z,80.41
2022-08-25T02:07:08.928Z,80.28
2022-08-25T02:09:37.898Z,80.43
2022-08-25T02:12:06.404Z,80.42
2022-08-25T02:14:35.763Z,80.38
2022-08-25T02:17:03.752Z,80.44
2022-08-25T02:19:31.746Z,80.52
2022-08-25T02:22:00.887Z,80.58
2022-08-25T02:24:29.118Z,82.96
2022-08-25T02:26:58.321Z,82.66
2022-08-25T02:29:26.412Z,82.51
2022-08-25T02:31:54.400Z,81.87
2022-08-25T02:34:23.414Z,81.51
2022-08-25T02:36:51.528Z,81.57
2022-08-25T02:39:19.915Z,81.61
2022-08-25T02:41:47.822Z,81.29
2022-08-25T02:44:16.251Z,81.65
2022-08-25T02:46:44.174Z,81.84
2022-08-25T02:49:12.072Z,81.71
2022-08-25T02:51:40.303Z,81.70
2022-08-25T02:54:08.357Z,81.78
2022-08-25T02:56:36.477Z,81.85
2022-08-25T02:59:04.502Z,81.58
2022-08-25T03:01:32.830Z,81.54
2022-08-25T03:04:02.133Z,81.53
2022-08-25T03:06:30.317Z,81.36
2022-08-25T03:08:58.408Z,81.43
2022-08-25T03:11:26.697Z,81.38
2022-08-25T03:13:54.932Z,81.21
2022-08-25T03:16:23.072Z,81.04
2022-08-25T03:18:56.220Z,80.98
2022-08-25T03:21:24.847Z,81.05
2022-08-25T03:23:52.780Z,81.10
2022-08-25T03:26:39.141Z,80.93
2022-08-25T03:29:07.255Z,80.92
2022-08-25T03:31:35.690Z,81.21
2022-08-25T03:34:04.318Z,81.25
2022-08-25T03:36:32.248Z,81.49
2022-08-25T03:39:00.611Z,81.64
2022-08-25T03:41:32.594Z,82.80
2022-08-25T03:44:01.847Z,82.49
2022-08-25T03:46:35.294Z,82.03
2022-08-25T03:49:04.263Z,82.23
2022-08-25T03:51:34.084Z,81.93
2022-08-25T03:54:02.516Z,81.75
2022-08-25T03:56:30.576Z,81.92
2022-08-25T03:58:59.181Z,81.91
2022-08-25T04:01:27.215Z,82.01
2022-08-25T04:03:55.163Z,82.04
2022-08-25T04:06:23.457Z,82.00
2022-08-25T04:08:52.875Z,82.03
2022-08-25T04:11:22.021Z,81.99
2022-08-25T04:13:50.405Z,81.95
2022-08-25T04:16:20.088Z,81.95
2022-08-25T04:18:48.354Z,82.20
2022-08-25T04:21:20.567Z,82.30
2022-08-25T04:23:49.313Z,82.11
2022-08-25T04:26:19.854Z,82.41
2022-08-25T04:28:48.270Z,82.56
2022-08-25T04:31:17.149Z,84.85
2022-08-25T04:33:47.268Z,84.11
2022-08-25T04:36:16.861Z,83.62
2022-08-25T04:38:45.353Z,83.48
2022-08-25T04:41:14.417Z,83.75
2022-08-25T04:43:44.339Z,83.53
2022-08-25T04:46:14.826Z,83.66
2022-08-25T04:48:49.069Z,83.31
2022-08-25T04:51:18.311Z,83.15
2022-08-25T04:53:46.236Z,82.87
2022-08-25T04:56:15.165Z,82.81
2022-08-25T04:58:43.015Z,82.46
2022-08-25T05:01:15.752Z,82.46
2022-08-25T05:03:44.760Z,82.12
2022-08-25T05:06:16.010Z,82.60
2022-08-25T05:08:45.734Z,80.66
2022-08-25T05:11:17.550Z,79.50
2022-08-25T05:13:51.332Z,78.47
2022-08-25T05:16:20.512Z,77.51
2022-08-25T05:18:49.138Z,76.46
2022-08-25T05:21:18.593Z,75.85
2022-08-25T05:23:47.179Z,75.30
2022-08-25T05:26:20.249Z,74.61
2022-08-25T05:28:52.644Z,74.19
2022-08-25T05:31:21.363Z,74.08
2022-08-25T05:33:50.633Z,74.15
2022-08-25T05:36:20.171Z,73.92
2022-08-25T05:38:48.819Z,74.23
2022-08-25T05:41:17.989Z,74.19
2022-08-25T05:43:48.101Z,74.19
2022-08-25T05:46:17.024Z,74.51
2022-08-25T05:48:45.103Z,73.67
2022-08-25T05:51:13.401Z,71.95
2022-08-25T05:53:43.116Z,68.76
2022-08-25T05:56:15.061Z,65.55
2022-08-25T05:58:43.650Z,61.69
2022-08-25T06:01:37.815Z,57.71
2022-08-25T06:04:06.535Z,54.13
2022-08-25T06:06:34.722Z,51.47
2022-08-25T06:09:03.383Z,48.61
2022-08-25T06:11:31.247Z,46.07
2022-08-25T06:13:59.544Z,43.13
2022-08-25T06:16:27.753Z,40.14
2022-08-25T06:18:55.795Z,38.40
2022-08-25T06:21:23.820Z,37.61
2022-08-25T06:23:51.947Z,35.37
2022-08-25T06:26:21.416Z,33.51
2022-08-25T06:28:51.073Z,32.90
2022-08-25T06:31:20.591Z,33.16
2022-08-25T06:33:48.538Z,31.46
2022-08-25T06:36:17.120Z,29.21
2022-08-25T06:38:45.945Z,28.08
2022-08-25T06:41:14.258Z,27.07
2022-08-25T06:43:47.974Z,26.02
2022-08-25T06:46:21.945Z,24.58
2022-08-25T06:48:56.924Z,24.79
2022-08-25T06:51:26.177Z,24.29
2022-08-25T06:53:54.300Z,23.74
2022-08-25T06:56:22.109Z,22.73
2022-08-25T06:58:52.082Z,22.32
2022-08-25T07:01:25.783Z,22.63
2022-08-25T07:03:58.101Z,22.06
2022-08-25T07:06:27.269Z,21.25
2022-08-25T07:08:55.196Z,21.09
2022-08-25T07:11:23.536Z,20.95
2022-08-25T07:13:51.466Z,22.14
2022-08-25T07:16:20.681Z,23.45
2022-08-25T07:18:49.154Z,23.89
2022-08-25T07:21:23.060Z,24.13
2022-08-25T07:23:53.897Z,24.48
2022-08-25T07:26:37.296Z,25.20
2022-08-25T07:29:11.339Z,25.77
2022-08-25T07:31:39.341Z,26.55
2022-08-25T07:34:26.173Z,27.32
2022-08-25T07:36:55.009Z,28.43
2022-08-25T07:39:23.699Z,29.14
2022-08-25T07:41:52.575Z,30.22
2022-08-25T07:44:22.186Z,30.75
2022-08-25T07:46:51.231Z,30.33
2022-08-25T07:49:23.278Z,30.97
2022-08-25T07:52:04.730Z,31.87
2022-08-25T07:54:35.695Z,32.76
2022-08-25T07:57:07.727Z,33.14
2022-08-25T07:59:39.576Z,33.27
2022-08-25T08:02:09.343Z,32.76
2022-08-25T08:04:50.406Z,33.61
2022-08-25T08:07:43.042Z,33.90
2022-08-25T08:10:54.173Z,34.18
2022-08-25T08:13:20.917Z,35.12
2022-08-25T08:16:03.782Z,34.74
2022-08-25T08:18:39.632Z,35.02
2022-08-25T08:21:19.991Z,34.88
2022-08-25T08:23:49.345Z,35.36
2022-08-25T08:26:57.590Z,34.96
2022-08-25T08:29:44.674Z,34.31
2022-08-25T08:32:14.528Z,34.82
2022-08-25T08:34:43.566Z,35.74
2022-08-25T08:37:14.270Z,34.59
2022-08-25T08:39:58.143Z,34.15
2022-08-25T08:42:50.423Z,34.78
2022-08-25T08:45:26.842Z,34.15
2022-08-25T08:48:13.409Z,33.14
2022-08-25T08:50:54.474Z,33.51
2022-08-25T08:53:27.399Z,33.39
2022-08-25T08:56:06.937Z,33.23
2022-08-25T08:59:07.381Z,33.35
2022-08-25T09:01:47.581Z,32.03
2022-08-25T09:04:24.385Z,32.59
2022-08-25T09:07:09.296Z,32.04
2022-08-25T09:10:10.174Z,31.63
2022-08-25T09:12:59.107Z,30.74
2022-08-25T09:15:57.518Z,31.06
2022-08-25T09:18:32.025Z,31.62
2022-08-25T09:21:00.580Z,31.95
2022-08-25T09:23:28.495Z,31.80
2022-08-25T09:25:56.379Z,31.38
2022-08-25T09:28:38.737Z,30.97
2022-08-25T09:31:16.444Z,30.86
2022-08-25T09:33:45.274Z,31.40
2022-08-25T09:36:15.190Z,31.48
2022-08-25T09:38:43.080Z,30.11
2022-08-25T09:41:15.691Z,30.02
2022-08-25T09:43:53.486Z,29.82
2022-08-25T09:46:27.004Z,30.46
2022-08-25T09:48:57.599Z,30.31
2022-08-25T09:51:25.749Z,30.90
2022-08-25T09:53:53.744Z,30.04
2022-08-25T09:56:24.391Z,30.69
2022-08-25T09:58:55.004Z,31.38
2022-08-25T10:01:23.568Z,30.53
2022-08-25T10:03:57.557Z,29.36
2022-08-25T10:06:27.321Z,28.59
2022-08-25T10:08:59.808Z,28.10
2022-08-25T10:11:40.162Z,27.81
2022-08-25T10:14:16.789Z,27.20
2022-08-25T10:16:47.280Z,26.88
2022-08-25T10:19:18.753Z,26.55
2022-08-25T10:22:01.788Z,26.26
2022-08-25T10:24:29.665Z,24.50
2022-08-25T10:27:16.028Z,24.50
2022-08-25T10:29:43.825Z,25.14
2022-08-25T10:32:26.895Z,24.76
2022-08-25T10:34:58.301Z,24.01
2022-08-25T10:37:32.898Z,23.32
2022-08-25T10:40:19.583Z,23.22
2022-08-25T10:42:53.960Z,23.59
2022-08-25T10:45:51.016Z,23.44
2022-08-25T10:48:33.155Z,23.87
2022-08-25T10:51:06.815Z,23.49
2022-08-25T10:53:47.886Z,23.23
2022-08-25T10:56:27.951Z,23.51
2022-08-25T10:59:38.835Z,23.81
2022-08-25T11:02:56.499Z,23.82
2022-08-25T11:05:33.285Z,24.76
2022-08-25T11:08:20.659Z,24.74
2022-08-25T11:11:34.963Z,25.42
2022-08-25T11:14:24.430Z,24.89
2022-08-25T11:17:12.091Z,23.78
2022-08-25T11:19:51.763Z,23.32
2022-08-25T11:26:25.076Z,23.87
2022-08-25T11:29:18.661Z,24.30
2022-08-25T11:32:17.761Z,23.28
2022-08-25T11:35:20.279Z,23.46
2022-08-25T11:38:10.445Z,23.85
2022-08-25T11:41:30.942Z,24.02
2022-08-25T11:44:37.923Z,24.63
2022-08-25T11:47:58.520Z,24.32
2022-08-25T11:50:41.284Z,24.11
2022-08-25T11:53:31.786Z,23.89
2022-08-25T11:56:20.425Z,24.03
2022-08-25T12:01:58.021Z,24.57
2022-08-25T12:04:49.559Z,24.81
2022-08-25T12:08:22.513Z,24.88
2022-08-25T12:11:20.793Z,24.80
2022-08-25T12:14:22.574Z,24.57
2022-08-25T12:17:26.681Z,24.30
2022-08-25T12:20:13.037Z,23.61
2022-08-25T12:23:02.662Z,23.74
2022-08-25T12:25:49.770Z,23.91
2022-08-25T12:29:02.287Z,25.00
2022-08-25T12:32:04.812Z,25.03
2022-08-25T12:35:23.387Z,24.81
2022-08-25T12:38:06.999Z,24.84
2022-08-25T12:41:22.633Z,24.94
2022-08-25T12:44:12.830Z,24.54
2022-08-25T12:47:09.963Z,25.58
2022-08-25T12:49:50.695Z,25.72
2022-08-25T12:52:31.076Z,26.01
2022-08-25T12:55:08.167Z,25.70
2022-08-25T12:57:59.954Z,26.12
2022-08-25T13:00:55.877Z,25.48
2022-08-25T13:03:59.981Z,25.04
2022-08-25T13:06:48.157Z,25.42
2022-08-25T13:09:42.650Z,25.12
2022-08-25T13:12:39.706Z,25.30
2022-08-25T13:15:17.087Z,24.98
2022-08-25T13:17:57.343Z,24.82
2022-08-25T13:20:33.930Z,24.71
2022-08-25T13:23:11.621Z,24.63
2022-08-25T13:25:58.583Z,24.69
2022-08-25T13:28:42.018Z,24.77
2022-08-25T13:31:30.667Z,25.10
2022-08-25T13:34:21.433Z,24.58
2022-08-25T13:37:29.938Z,24.81
2022-08-25T13:43:27.372Z,25.74
2022-08-25T13:46:10.615Z,25.61
2022-08-25T13:48:49.424Z,24.97
2022-08-25T13:51:31.834Z,25.55
2022-08-25T13:54:13.388Z,25.58
2022-08-25T13:56:50.452Z,25.71
2022-08-25T13:59:27.965Z,25.56
2022-08-25T14:02:07.876Z,26.01
2022-08-25T14:04:53.063Z,26.17
2022-08-25T14:07:46.450Z,26.11
2022-08-25T14:10:48.642Z,25.94
2022-08-25T14:13:32.368Z,25.81
2022-08-25T14:16:12.084Z,26.58
2022-08-25T14:18:58.658Z,27.67
2022-08-25T14:21:36.994Z,27.09
2022-08-25T14:24:44.901Z,27.09
2022-08-25T14:27:20.855Z,27.13
2022-08-25T14:30:00.069Z,27.14
2022-08-25T14:32:43.991Z,27.50
2022-08-25T14:35:25.141Z,28.16
2022-08-25T14:37:57.830Z,28.10
2022-08-25T14:40:34.670Z,28.28
2022-08-25T14:43:13.001Z,27.99
2022-08-25T14:45:50.095Z,29.02
2022-08-25T14:48:34.976Z,31.06
2022-08-25T14:51:12.621Z,29.44
2022-08-25T14:53:47.248Z,29.51
2022-08-25T14:56:20.402Z,30.09
2022-08-25T14:59:18.717Z,31.66
2022-08-25T15:01:53.300Z,30.22
2022-08-25T15:04:38.885Z,30.33
2022-08-25T15:07:39.791Z,32.77
2022-08-25T15:10:22.141Z,31.30
2022-08-25T15:13:01.402Z,31.20
2022-08-25T15:15:52.100Z,32.15
2022-08-25T15:18:35.535Z,31.42
2022-08-25T15:21:07.910Z,30.21
2022-08-25T15:23:46.188Z,31.37
2022-08-25T15:26:28.605Z,31.79
2022-08-25T15:29:06.910Z,31.38
2022-08-25T15:31:47.551Z,31.14
2022-08-25T15:34:29.387Z,31.02
2022-08-25T15:37:12.668Z,31.34
2022-08-25T15:39:53.994Z,32.69
2022-08-25T15:42:30.155Z,34.93
2022-08-25T15:45:05.404Z,34.80
2022-08-25T15:47:40.634Z,35.01
2022-08-25T15:50:26.007Z,32.99
2022-08-25T15:53:04.133Z,35.59
2022-08-25T15:55:46.025Z,36.00
2022-08-25T15:58:20.138Z,37.00
2022-08-25T16:00:56.630Z,38.85
2022-08-25T16:03:33.170Z,39.88
2022-08-25T16:06:07.384Z,39.78
2022-08-25T16:08:44.581Z,41.87
2022-08-25T16:11:25.376Z,41.36
2022-08-25T16:14:01.106Z,42.21
2022-08-25T16:16:36.428Z,41.14
2022-08-25T16:19:15.368Z,41.65
2022-08-25T16:21:53.359Z,42.26
2022-08-25T16:24:40.378Z,41.96
2022-08-25T16:27:23.394Z,44.32
2022-08-25T16:30:00.479Z,44.19
2022-08-25T16:32:35.616Z,44.44
2022-08-25T16:35:10.984Z,46.15
2022-08-25T16:37:46.710Z,46.12
2022-08-25T16:40:57.130Z,46.04
2022-08-25T16:44:02.622Z,46.83
2022-08-25T16:46:38.922Z,46.92
2022-08-25T16:49:24.316Z,47.17
2022-08-25T16:52:31.483Z,47.86
2022-08-25T16:55:20.413Z,48.76
2022-08-25T16:58:13.471Z,48.21
2022-08-25T17:00:47.808Z,48.39
2022-08-25T17:03:33.525Z,48.37
2022-08-25T17:06:09.058Z,49.09
2022-08-25T17:08:43.124Z,50.66
2022-08-25T17:11:28.401Z,51.42
2022-08-25T17:14:03.229Z,51.23
2022-08-25T17:19:42.182Z,49.54
2022-08-25T17:22:23.826Z,49.55
2022-08-25T17:25:06.841Z,50.65
2022-08-25T17:27:51.300Z,50.64
2022-08-25T17:30:29.210Z,51.83
2022-08-25T17:33:05.458Z,51.14
2022-08-25T17:35:44.075Z,51.51
2022-08-25T17:38:21.486Z,52.45
2022-08-25T17:41:05.234Z,52.38
2022-08-25T17:43:39.882Z,52.84
2022-08-25T17:46:14.734Z,53.36
2022-08-25T17:49:19.409Z,54.12
2022-08-25T17:51:55.354Z,54.05
2022-08-25T17:54:29.815Z,54.15
2022-08-25T17:57:20.233Z,54.50
2022-08-25T17:59:58.189Z,54.71
2022-08-25T18:02:36.409Z,55.09
2022-08-25T18:08:05.358Z,56.10
2022-08-25T18:10:44.221Z,56.33
2022-08-25T18:13:35.561Z,56.33
2022-08-25T18:16:11.313Z,55.89
2022-08-25T18:18:47.380Z,55.78
2022-08-25T18:21:30.734Z,56.43
2022-08-25T18:24:04.541Z,57.16
2022-08-25T18:26:38.036Z,56.90
2022-08-25T18:29:12.652Z,57.36
2022-08-25T18:31:49.132Z,58.40
2022-08-25T18:34:23.016Z,57.85
2022-08-25T18:37:21.441Z,57.14
2022-08-25T18:40:14.795Z,57.25
2022-08-25T18:42:57.073Z,57.22
2022-08-25T18:45:34.734Z,57.11
2022-08-25T18:48:36.996Z,56.54
2022-08-25T18:51:22.887Z,56.74
2022-08-25T18:54:01.457Z,56.91
2022-08-25T18:56:35.577Z,56.81
2022-08-25T18:59:17.883Z,57.06
2022-08-25T19:01:51.004Z,57.66
2022-08-25T19:04:56.117Z,57.74
2022-08-25T19:07:31.323Z,58.74
2022-08-25T19:10:33.014Z,59.24
2022-08-25T19:13:17.245Z,60.10
2022-08-25T19:15:59.049Z,60.57
2022-08-25T19:18:37.063Z,60.09
2022-08-25T19:21:10.153Z,60.16
2022-08-25T19:23:57.094Z,60.36
2022-08-25T19:26:37.800Z,59.43
2022-08-25T19:29:34.895Z,59.29
2022-08-25T19:32:12.895Z,60.46
2022-08-25T19:38:33.264Z,61.49
2022-08-25T19:41:39.945Z,62.65
2022-08-25T19:44:18.360Z,62.39
2022-08-25T19:46:50.686Z,61.72
2022-08-25T19:49:48.005Z,62.46
2022-08-25T19:52:31.596Z,62.62
2022-08-25T19:55:10.981Z,62.86
2022-08-25T19:57:47.493Z,63.35
2022-08-25T20:00:20.783Z,63.21
2022-08-25T20:02:55.165Z,63.36
2022-08-25T20:05:36.114Z,63.76
2022-08-25T20:08:14.065Z,64.15
2022-08-25T20:10:49.976Z,64.25
2022-08-25T20:13:31.043Z,64.47
2022-08-25T20:16:07.180Z,64.41
2022-08-25T20:18:45.825Z,64.51
2022-08-25T20:21:27.514Z,64.39
2022-08-25T20:24:24.141Z,64.82
2022-08-25T20:27:00.398Z,65.00
2022-08-25T20:29:35.956Z,65.23
2022-08-25T20:32:14.375Z,65.24
2022-08-25T20:34:52.284Z,65.55
2022-08-25T20:37:31.724Z,66.12
2022-08-25T20:40:12.228Z,65.84
2022-08-25T20:42:48.946Z,66.10
2022-08-25T20:45:26.233Z,66.46
2022-08-25T20:51:00.202Z,66.42
2022-08-25T20:53:41.962Z,66.64
2022-08-25T20:56:16.696Z,66.64
2022-08-25T20:59:03.194Z,66.70
2022-08-25T21:01:46.591Z,66.87
2022-08-25T21:04:28.951Z,66.85
2022-08-25T21:07:12.770Z,67.02
2022-08-25T21:09:48.836Z,67.24
2022-08-25T21:12:32.065Z,67.07
2022-08-25T21:15:12.945Z,66.98
2022-08-25T21:17:56.581Z,67.31
2022-08-25T21:20:33.743Z,67.30
2022-08-25T21:23:09.112Z,67.48
2022-08-25T21:25:46.803Z,67.21
2022-08-25T21:28:25.809Z,67.32
2022-08-25T21:31:03.568Z,67.68
2022-08-25T21:33:41.741Z,67.59
2022-08-25T21:36:21.287Z,67.57
2022-08-25T21:39:07.292Z,67.31
2022-08-25T21:41:44.430Z,67.48
2022-08-25T21:44:24.743Z,67.47
2022-08-25T21:47:04.374Z,67.67
2022-08-25T21:49:45.585Z,67.86
2022-08-25T21:52:20.069Z,67.75
2022-08-25T21:54:54.040Z,67.40
2022-08-25T21:57:37.218Z,67.55
2022-08-25T22:00:19.180Z,67.54
2022-08-25T22:03:02.390Z,67.50
2022-08-25T22:05:47.203Z,67.72
2022-08-25T22:08:31.571Z,67.84
2022-08-25T22:11:17.446Z,67.63
2022-08-25T22:13:56.886Z,67.79
2022-08-25T22:16:36.297Z,67.59
2022-08-25T22:19:15.918Z,67.61
2022-08-25T22:21:50.435Z,68.18
2022-08-25T22:24:30.896Z,68.16
2022-08-25T22:27:17.202Z,68.40
2022-08-25T22:33:09.125Z,68.35
2022-08-25T22:35:51.268Z,68.47
2022-08-25T22:38:36.208Z,68.43
2022-08-25T22:41:42.721Z,69.23
2022-08-25T22:44:25.178Z,68.94
2022-08-25T22:47:12.323Z,69.09
2022-08-25T22:49:54.188Z,69.13
2022-08-25T22:52:33.656Z,69.24
2022-08-25T22:55:13.163Z,69.29
2022-08-25T22:58:25.286Z,69.05
2022-08-25T23:00:59.806Z,69.12
2022-08-25T23:03:33.527Z,69.25
2022-08-25T23:06:20.724Z,69.31
2022-08-25T23:09:05.176Z,69.34
2022-08-25T23:11:42.784Z,69.57
2022-08-25T23:14:17.512Z,69.59
2022-08-25T23:16:52.272Z,69.49
2022-08-25T23:19:33.213Z,69.38
2022-08-25T23:22:16.178Z,69.32
2022-08-25T23:24:59.561Z,69.56
2022-08-25T23:27:35.411Z,69.50
2022-08-25T23:30:42.902Z,69.52
2022-08-25T23:33:18.741Z,69.91
2022-08-25T23:36:14.819Z,69.87
2022-08-25T23:42:08.474Z,70.21
2022-08-25T23:48:13.737Z,70.84
2022-08-25T23:50:58.293Z,70.77
2022-08-25T23:53:36.507Z,70.78
2022-08-25T23:56:26.599Z,71.02
2022-08-25T23:59:14.511Z,71.21
